Time;durP1;ratioP1;P1;durP2;ratioP2;P2;SDS_P1;SDS_P2;PMS_P1;PMS_P2;Temp;Humidity;BMP_temperature;BMP_pressure;BME280_temperature;BME280_humidity;BME280_pressure;Samples;Min_cycle;Max_cycle;Signal;HPM_P1;HPM_P2
2023/10/10 00:02:07;;;;;;;34.22;21.73;;;13.90;98.50;;;;;;5067243;28;20478;-78
2023/10/10 00:04:34;;;;;;;;;;;13.90;98.60;;;;;;5053520;28;20039;-78
2023/10/10 00:07:04;;;;;;;32.80;19.13;;;13.90;98.50;;;;;;5064833;28;19916;-78
2023/10/10 00:09:29;;;;;;;35.72;21.50;;;13.80;98.30;;;;;;5060495;28;20127;-78
2023/10/10 00:11:57;;;;;;;38.45;21.95;;;13.80;98.40;;;;;;5079291;28;20245;-78
2023/10/10 00:14:27;;;;;;;30.20;19.55;;;13.80;98.40;;;;;;5058691;28;20021;-78
2023/10/10 00:16:59;;;;;;;38.10;20.98;;;13.70;98.40;;;;;;5065566;28;20059;-80
2023/10/10 00:21:53;;;;;;;35.83;20.77;;;13.60;98.40;;;;;;5068553;28;20043;-78
2023/10/10 00:24:21;;;;;;;31.92;20.90;;;13.60;98.40;;;;;;5051427;28;20602;-78
2023/10/10 00:26:47;;;;;;;35.53;21.00;;;13.60;98.50;;;;;;5062319;28;20042;-80
2023/10/10 00:29:13;;;;;;;35.03;22.65;;;13.60;98.50;;;;;;5054094;28;20442;-80
2023/10/10 00:31:43;;;;;;;36.72;21.38;;;13.50;98.50;;;;;;5064061;28;20112;-79
2023/10/10 00:34:09;;;;;;;38.78;23.38;;;13.50;98.60;;;;;;5060158;28;20122;-79
2023/10/10 00:36:36;;;;;;;42.63;22.08;;;13.50;98.70;;;;;;5051908;28;20032;-80
2023/10/10 00:39:30;;;;;;;35.38;23.83;;;13.40;98.50;;;;;;5066574;28;20452;-80
2023/10/10 00:44:17;;;;;;;40.75;24.77;;;13.40;98.50;;;;;;5062625;28;20474;-79
2023/10/10 00:46:49;;;;;;;42.45;25.73;;;13.40;98.70;;;;;;5049619;28;20032;-80
2023/10/10 00:49:17;;;;;;;48.13;27.05;;;13.40;98.80;;;;;;5061866;28;20450;-79
2023/10/10 00:51:47;;;;;;;43.70;28.00;;;13.40;98.70;;;;;;5053433;28;20036;-79
2023/10/10 00:54:26;;;;;;;51.85;29.00;;;13.40;98.90;;;;;;5063791;28;20036;-79
2023/10/10 00:56:55;;;;;;;49.30;28.67;;;13.40;98.90;;;;;;5053193;28;20684;-79
2023/10/10 00:59:27;;;;;;;48.03;27.67;;;13.40;98.90;;;;;;5064661;28;20127;-79
2023/10/10 01:01:53;;;;;;;50.28;29.98;;;13.50;98.90;;;;;;5051884;28;20308;-79
2023/10/10 01:04:32;;;;;;;49.92;32.92;;;13.50;99.00;;;;;;5067538;28;20032;-79
2023/10/10 01:07:03;;;;;;;54.72;33.63;;;13.60;99.10;;;;;;5052566;28;20043;-79
2023/10/10 01:09:33;;;;;;;56.30;33.42;;;13.60;99.40;;;;;;5065570;28;20020;-79
2023/10/10 01:12:04;;;;;;;57.80;34.55;;;13.60;99.10;;;;;;5053997;28;20086;-79
2023/10/10 01:14:30;;;;;;;56.65;32.53;;;13.70;99.10;;;;;;5060748;28;20040;-78
2023/10/10 01:16:58;;;;;;;53.10;33.55;;;13.70;99.10;;;;;;5052995;28;20025;-78
2023/10/10 01:19:28;;;;;;;52.03;31.85;;;13.70;99.10;;;;;;5060937;28;20047;-78
2023/10/10 01:21:58;;;;;;;52.42;33.75;;;13.80;99.10;;;;;;5052553;28;20032;-78
2023/10/10 01:24:25;;;;;;;55.50;32.70;;;13.80;99.00;;;;;;5069106;28;20044;-78
2023/10/10 01:26:51;;;;;;;53.47;33.45;;;13.80;98.90;;;;;;5050132;28;20031;-78
2023/10/10 01:29:23;;;;;;;54.45;34.55;;;13.80;98.90;;;;;;5069310;28;20040;-78
2023/10/10 01:31:51;;;;;;;50.10;32.97;;;13.80;98.90;;;;;;5054233;28;20036;-80
2023/10/10 01:34:43;;;;;;;52.63;33.70;;;13.80;99.00;;;;;;5058654;28;20527;-80
2023/10/10 01:37:08;;;;;;;56.25;32.40;;;13.80;98.80;;;;;;5053917;28;20126;-78
2023/10/10 01:39:55;;;;;;;55.35;32.83;;;13.80;98.70;;;;;;5063874;28;20534;-79
2023/10/10 01:42:43;;;;;;;52.75;33.10;;;13.70;98.60;;;;;;5052093;28;20052;-79
2023/10/10 01:45:08;;;;;;;53.72;32.35;;;13.70;98.90;;;;;;5063489;28;20036;-78
2023/10/10 01:47:35;;;;;;;51.63;32.88;;;13.70;99.00;;;;;;5047824;28;20035;-80
2023/10/10 01:50:08;;;;;;;59.75;34.13;;;13.70;98.80;;;;;;5063509;28;20141;-79
2023/10/10 01:52:37;;;;;;;61.85;35.78;;;13.70;99.10;;;;;;5050688;28;20036;-79
2023/10/10 01:55:03;;;;;;;54.35;30.30;;;13.60;99.20;;;;;;5065733;28;20070;-79
2023/10/10 01:57:28;;;;;;;49.20;30.75;;;13.60;99.00;;;;;;5054406;28;20079;-78
2023/10/10 01:59:57;;;;;;;53.08;30.77;;;13.50;98.80;;;;;;5062184;28;20024;-78
2023/10/10 02:02:26;;;;;;;49.83;30.08;;;13.50;98.90;;;;;;5038444;28;20035;-77
2023/10/10 02:04:56;;;;;;;49.80;29.27;;;13.50;98.90;;;;;;5058573;28;20115;-78
2023/10/10 02:07:23;;;;;;;51.10;30.90;;;13.50;98.90;;;;;;5054993;28;20036;-79
2023/10/10 02:09:53;;;;;;;54.95;29.45;;;13.40;98.80;;;;;;5061274;28;20098;-80
2023/10/10 02:12:22;;;;;;;59.05;32.78;;;13.40;98.70;;;;;;5062516;28;20028;-78
2023/10/10 02:14:48;;;;;;;49.28;31.77;;;13.40;98.90;;;;;;5048961;28;20024;-79
2023/10/10 02:17:24;;;;;;;41.50;27.30;;;13.30;99.10;;;;;;5062026;28;20032;-78
2023/10/10 02:19:53;;;;;;;43.20;28.70;;;13.30;99.10;;;;;;5046654;28;20546;-79
2023/10/10 02:22:33;;;;;;;44.97;28.27;;;13.20;98.70;;;;;;5059504;28;20082;-79
2023/10/10 02:25:37;;;;;;;41.60;27.15;;;13.20;98.90;;;;;;5051301;28;20043;-79
2023/10/10 02:27:57;;;;;;;46.45;28.10;;;13.10;98.90;;;;;;5057992;28;20060;-79
2023/10/10 02:30:34;;;;;;;51.58;28.92;;;13.10;98.90;;;;;;5054239;28;20085;-79
2023/10/10 02:33:05;;;;;;;41.97;25.63;;;13.10;99.10;;;;;;5068335;28;20058;-79
2023/10/10 02:35:42;;;;;;;45.40;26.90;;;13.00;99.10;;;;;;5053230;28;20040;-79
2023/10/10 02:38:11;;;;;;;40.22;26.20;;;13.00;99.10;;;;;;5073475;28;20024;-79
2023/10/10 02:40:42;;;;;;;42.33;26.52;;;13.00;99.00;;;;;;5056453;28;20719;-78
2023/10/10 02:43:18;;;;;;;38.20;26.20;;;13.00;99.00;;;;;;5073087;28;20092;-78
2023/10/10 02:45:44;;;;;;;39.28;25.42;;;12.90;98.90;;;;;;5054115;28;20554;-78
2023/10/10 02:48:20;;;;;;;38.40;25.10;;;12.90;98.70;;;;;;5062672;28;20040;-80
2023/10/10 02:50:45;;;;;;;48.22;27.85;;;12.80;98.80;;;;;;5056296;28;20032;-80
2023/10/10 02:53:14;;;;;;;43.05;27.60;;;12.80;98.80;;;;;;5064125;28;20117;-80
2023/10/10 02:55:41;;;;;;;47.75;30.50;;;12.80;99.20;;;;;;5054618;28;20391;-80
2023/10/10 02:58:27;;;;;;;55.67;32.53;;;12.80;99.30;;;;;;5070581;28;20036;-80
2023/10/10 03:00:57;;;;;;;48.95;31.77;;;12.90;99.60;;;;;;5055460;28;20506;-78
2023/10/10 03:03:24;;;;;;;46.58;29.88;;;12.80;99.40;;;;;;5072151;28;20043;-80
2023/10/10 03:05:50;;;;;;;48.80;31.08;;;12.90;99.40;;;;;;5056980;28;20024;-80
2023/10/10 03:08:34;;;;;;;47.88;29.60;;;12.90;99.30;;;;;;5066515;28;20044;-80
2023/10/10 03:11:01;;;;;;;50.22;30.58;;;12.90;99.30;;;;;;5056550;28;20075;-80
2023/10/10 03:13:35;;;;;;;48.53;29.73;;;12.90;99.40;;;;;;5072539;28;20034;-80
2023/10/10 03:18:18;;;;;;;48.80;28.90;;;12.80;99.20;;;;;;5055111;28;20044;-80
2023/10/10 03:19:14;;;;;;;41.97;28.90;;;12.80;99.20;;;;;;5066894;28;20040;-79
2023/10/10 03:21:51;;;;;;;46.67;28.20;;;12.80;99.10;;;;;;5049648;28;20135;-79
2023/10/10 03:24:49;;;;;;;43.90;30.23;;;12.70;99.10;;;;;;5067886;28;20143;-80
2023/10/10 03:29:50;;;;;;;50.67;31.02;;;12.70;99.10;;;;;;5068717;28;20029;-80
2023/10/10 03:32:32;;;;;;;46.47;30.02;;;12.70;99.10;;;;;;5055210;28;20432;-80
2023/10/10 03:35:05;;;;;;;45.60;30.60;;;12.70;99.00;;;;;;5064115;28;20086;-79
2023/10/10 03:37:41;;;;;;;45.63;29.88;;;12.60;99.10;;;;;;5053075;28;20032;-80
2023/10/10 05:23:37;;;;;;;68.32;39.90;;;12.60;99.60;;;;;;5060635;28;20407;-79
2023/10/10 05:25:25;;;;;;;57.47;36.25;;;12.70;99.90;;;;;;5050295;28;20178;-79
2023/10/10 05:27:52;;;;;;;53.78;34.95;;;12.70;99.90;;;;;;5060855;28;20430;-78
2023/10/10 05:30:23;;;;;;;53.30;33.53;;;12.70;99.90;;;;;;5053327;28;20125;-79
2023/10/10 05:33:02;;;;;;;54.25;35.45;;;12.70;99.70;;;;;;5061679;28;20549;-79
2023/10/10 05:35:30;;;;;;;;;;;12.70;99.60;;;;;;5053170;28;20036;-79
2023/10/10 05:37:56;;;;;;;56.03;34.65;;;12.70;99.40;;;;;;5069365;28;19920;-79
2023/10/10 05:40:24;;;;;;;57.13;36.83;;;12.70;99.50;;;;;;5053429;28;20075;-78
2023/10/10 05:42:51;;;;;;;53.20;35.40;;;12.70;99.70;;;;;;5065468;28;20042;-79
2023/10/10 05:45:19;;;;;;;55.58;35.83;;;12.80;99.70;;;;;;5059048;28;20032;-78
2023/10/10 05:47:45;;;;;;;57.50;37.95;;;12.70;99.60;;;;;;5066826;28;20040;-78
2023/10/10 05:50:11;;;;;;;65.25;38.90;;;12.80;99.70;;;;;;5067484;28;20317;-78
2023/10/10 05:52:38;;;;;;;55.63;36.53;;;12.80;99.70;;;;;;5083445;28;20032;-77
2023/10/10 05:55:06;;;;;;;57.05;37.53;;;12.80;99.70;;;;;;5069425;28;20020;-78
2023/10/10 05:57:33;;;;;;;64.45;41.08;;;12.90;99.60;;;;;;5086133;28;20033;-78
2023/10/10 06:00:00;;;;;;;59.60;37.45;;;12.90;99.80;;;;;;5080506;28;20100;-78
2023/10/10 06:02:27;;;;;;;56.47;37.42;;;12.90;99.60;;;;;;5069016;28;20032;-78
2023/10/10 06:04:53;;;;;;;60.58;37.08;;;12.80;99.60;;;;;;5084082;28;20109;-78
2023/10/10 06:07:20;;;;;;;57.75;37.40;;;12.80;99.80;;;;;;5079432;28;20017;-78
2023/10/10 06:09:51;;;;;;;55.88;38.17;;;12.90;99.70;;;;;;5087367;28;20047;-78
2023/10/10 06:12:18;;;;;;;54.78;37.40;;;12.80;99.70;;;;;;5078949;28;20020;-78
2023/10/10 06:14:46;;;;;;;55.03;36.22;;;12.80;99.80;;;;;;5089925;28;20040;-78
2023/10/10 06:17:12;;;;;;;57.97;36.88;;;12.80;99.70;;;;;;5076503;28;20070;-78
2023/10/10 06:19:38;;;;;;;58.30;36.17;;;12.70;99.70;;;;;;5089879;28;20033;-78
2023/10/10 06:22:08;;;;;;;55.33;35.17;;;12.70;99.70;;;;;;5069234;28;20029;-78
2023/10/10 06:24:34;;;;;;;53.30;35.35;;;12.70;99.80;;;;;;5087182;28;20052;-80
2023/10/10 06:27:00;;;;;;;53.83;35.58;;;12.70;99.90;;;;;;5058236;28;20508;-80
2023/10/10 06:29:29;;;;;;;52.38;34.55;;;12.80;99.90;;;;;;5053833;28;20119;-80
2023/10/10 06:31:58;;;;;;;53.28;35.60;;;12.70;99.80;;;;;;5058174;28;20127;-78
2023/10/10 06:34:25;;;;;;;;;;;12.70;99.80;;;;;;5060508;28;20040;-79
2023/10/10 06:36:52;;;;;;;50.90;33.00;;;12.60;99.80;;;;;;5058317;28;19916;-79
2023/10/10 06:39:18;;;;;;;52.55;33.63;;;12.70;99.90;;;;;;5061700;28;20443;-77
2023/10/10 06:41:50;;;;;;;51.42;33.35;;;12.70;99.90;;;;;;5039990;28;20032;-78
2023/10/10 06:44:31;;;;;;;54.08;34.80;;;12.80;99.90;;;;;;5055254;28;20043;-77
2023/10/10 06:46:58;;;;;;;56.65;34.50;;;12.90;99.90;;;;;;5040561;28;20547;-77
2023/10/10 06:49:23;;;;;;;58.60;35.15;;;12.90;99.90;;;;;;5059301;28;20033;-78
2023/10/10 06:51:50;;;;;;;50.95;34.38;;;13.00;99.90;;;;;;5056221;28;20043;-75
2023/10/10 06:54:34;;;;;;;52.08;34.15;;;13.00;99.90;;;;;;5056957;28;20040;-78
2023/10/10 06:59:27;;;;;;;52.03;33.15;;;13.00;99.90;;;;;;5058465;28;20043;-78
2023/10/10 07:01:54;;;;;;;56.67;34.80;;;13.00;99.90;;;;;;5056830;28;20025;-77
2023/10/10 07:04:19;;;;;;;52.15;33.22;;;13.10;99.90;;;;;;5078216;28;20033;-78
2023/10/10 07:06:47;;;;;;;48.47;33.17;;;13.20;99.90;;;;;;5079330;28;20526;-79
2023/10/10 07:09:15;;;;;;;54.55;35.28;;;13.20;99.90;;;;;;5050335;28;20039;-78
2023/10/10 07:11:41;;;;;;;52.80;34.22;;;13.30;99.90;;;;;;5065098;28;20033;-78
2023/10/10 07:14:10;;;;;;;56.65;33.75;;;13.40;99.90;;;;;;5056822;28;20507;-78
2023/10/10 07:16:35;;;;;;;50.58;31.90;;;13.40;99.90;;;;;;5071073;28;20501;-78
2023/10/10 07:19:19;;;;;;;44.35;30.80;;;13.40;99.90;;;;;;5043322;28;20039;-77
2023/10/10 07:21:45;;;;;;;55.75;34.17;;;13.50;99.90;;;;;;5082171;28;20148;-80
2023/10/10 07:24:15;;;;;;;57.63;35.78;;;13.60;99.90;;;;;;5058412;22;20075;-73
2023/10/10 07:26:44;;;;;;;56.47;35.33;;;13.70;99.90;;;;;;5030085;28;20036;-73
2023/10/10 07:29:30;;;;;;;53.83;36.63;;;13.80;99.90;;;;;;5017111;28;20049;-73
2023/10/10 07:32:06;;;;;;;59.13;37.40;;;13.90;99.90;;;;;;5030153;28;20034;-74
2023/10/10 07:34:35;;;;;;;61.72;37.97;;;14.10;99.90;;;;;;5032944;28;20025;-74
2023/10/10 07:37:08;;;;;;;59.65;36.35;;;14.20;99.90;;;;;;5018539;28;20029;-73
2023/10/10 07:39:36;;;;;;;53.30;34.08;;;14.30;99.90;;;;;;5017690;28;20090;-73
2023/10/10 07:42:03;;;;;;;58.50;35.80;;;14.40;99.90;;;;;;5022712;28;20032;-74
2023/10/10 07:44:30;;;;;;;51.67;35.38;;;14.50;99.90;;;;;;5023798;28;20059;-74
2023/10/10 07:47:29;;;;;;;61.25;36.35;;;14.70;99.90;;;;;;5024870;28;20039;-76
2023/10/10 07:49:50;;;;;;;58.67;35.58;;;14.80;99.90;;;;;;5010751;28;20115;-76
2023/10/10 07:52:20;;;;;;;65.60;37.40;;;15.00;99.90;;;;;;5025176;28;20039;-73
2023/10/10 07:54:51;;;;;;;54.72;34.30;;;15.10;99.90;;;;;;5019238;28;20029;-73
2023/10/10 07:57:25;;;;;;;61.67;30.77;;;15.20;99.90;;;;;;5028934;28;20040;-73
2023/10/10 08:00:00;;;;;;;53.53;28.50;;;15.40;99.90;;;;;;5033097;28;20713;-74
2023/10/10 08:02:32;;;;;;;50.33;27.35;;;15.60;99.90;;;;;;5020197;28;20029;-73
2023/10/10 08:05:09;;;;;;;34.25;18.50;;;15.80;99.90;;;;;;5019485;28;20160;-76
2023/10/10 08:07:35;;;;;;;29.63;16.77;;;16.20;99.90;;;;;;5026333;28;21247;-76
2023/10/10 08:11:12;;;;;;;24.77;14.18;;;16.50;99.90;;;;;;5011476;28;20087;-76
2023/10/10 08:12:46;;;;;;;24.90;12.88;;;16.80;99.90;;;;;;5027500;28;20040;-75
2023/10/10 08:15:19;;;;;;;26.73;12.52;;;16.90;99.90;;;;;;5019434;28;20033;-74
2023/10/10 08:17:55;;;;;;;24.38;11.32;;;17.00;99.90;;;;;;5029663;28;20431;-76
2023/10/10 08:23:09;;;;;;;21.80;9.40;;;17.30;99.90;;;;;;5033447;28;20098;-75
2023/10/10 08:25:37;;;;;;;19.52;9.45;;;17.40;99.90;;;;;;5012806;28;20049;-75
2023/10/10 08:28:04;;;;;;;16.63;9.10;;;17.60;99.90;;;;;;5022068;28;20080;-75
2023/10/10 08:30:31;;;;;;;23.02;7.90;;;17.60;99.90;;;;;;5022821;28;20047;-74
2023/10/10 08:32:59;;;;;;;15.77;7.82;;;17.70;99.90;;;;;;5032394;28;20041;-76
2023/10/10 08:35:28;;;;;;;12.45;7.38;;;17.80;99.70;;;;;;5014389;28;20151;-74
2023/10/10 08:37:55;;;;;;;10.85;6.88;;;17.90;99.60;;;;;;5033837;28;20128;-75
2023/10/10 08:40:21;;;;;;;15.93;6.82;;;18.00;99.10;;;;;;5027343;28;20026;-75
2023/10/10 08:42:49;;;;;;;11.88;6.38;;;18.10;98.50;;;;;;5026573;28;20087;-75
2023/10/10 08:45:25;;;;;;;15.13;5.87;;;18.20;98.10;;;;;;5033797;28;20029;-74
2023/10/10 08:47:59;;;;;;;13.02;5.75;;;18.30;97.20;;;;;;5026261;28;20396;-75
2023/10/10 08:50:26;;;;;;;11.48;6.00;;;18.20;97.10;;;;;;5033882;28;20456;-74
2023/10/10 08:52:52;;;;;;;12.65;5.78;;;18.20;97.00;;;;;;5029081;28;20033;-75
2023/10/10 08:55:26;;;;;;;13.95;5.80;;;18.20;97.00;;;;;;5032240;28;20041;-75
2023/10/10 08:57:52;;;;;;;8.63;5.00;;;18.20;96.80;;;;;;5019788;28;20266;-76
2023/10/10 09:00:18;;;;;;;19.25;6.45;;;18.10;96.60;;;;;;5029063;28;20079;-76
2023/10/10 09:02:45;;;;;;;13.57;5.40;;;18.10;96.70;;;;;;5018540;28;20566;-75
2023/10/10 09:05:14;;;;;;;13.45;5.80;;;18.00;96.60;;;;;;5026263;28;20037;-74
2023/10/10 09:07:43;;;;;;;9.15;5.30;;;18.00;96.80;;;;;;5017195;28;20067;-75
2023/10/10 09:10:18;;;;;;;13.82;5.47;;;18.10;96.80;;;;;;5026644;28;20082;-75
2023/10/10 09:12:55;;;;;;;13.00;5.18;;;18.20;96.90;;;;;;5023319;28;20102;-75
2023/10/10 09:15:22;;;;;;;10.63;5.70;;;18.20;96.80;;;;;;5024287;28;20051;-75
2023/10/10 09:17:48;;;;;;;12.45;5.97;;;18.20;96.80;;;;;;5019731;28;20025;-76
2023/10/10 09:20:30;;;;;;;13.25;5.82;;;18.20;97.00;;;;;;5020773;28;20020;-76
2023/10/10 09:23:04;;;;;;;13.90;6.15;;;18.20;97.00;;;;;;5015555;28;20041;-75
2023/10/10 09:25:41;;;;;;;16.80;5.80;;;18.30;97.20;;;;;;5028001;28;20045;-74
2023/10/10 09:28:10;;;;;;;13.90;5.90;;;18.40;97.30;;;;;;5011146;28;20376;-74
2023/10/10 09:31:19;;;;;;;15.50;6.18;;;18.50;97.50;;;;;;5029379;28;20401;-75
2023/10/10 09:35:58;;;;;;;14.73;6.78;;;19.00;96.40;;;;;;5016989;28;20032;-74
2023/10/10 09:38:33;;;;;;;11.65;6.90;;;19.10;95.90;;;;;;5021059;28;20508;-74
2023/10/10 09:41:14;;;;;;;12.18;6.22;;;19.30;95.10;;;;;;5035638;28;20053;-75
2023/10/10 09:44:00;;;;;;;14.63;6.50;;;19.30;94.60;;;;;;5029690;28;20056;-74
2023/10/10 09:46:36;;;;;;;12.73;6.38;;;19.20;94.60;;;;;;5052076;28;20025;-75
2023/10/10 09:53:46;;;;;;;13.88;6.60;;;19.40;94.30;;;;;;5036437;28;20040;-74
2023/10/10 09:54:17;;;;;;;11.55;6.47;;;19.60;93.60;;;;;;5014507;28;20037;-73
2023/10/10 09:56:46;;;;;;;15.00;7.75;;;19.70;93.40;;;;;;5018757;28;20118;-73
2023/10/10 09:59:16;;;;;;;25.15;11.23;;;19.70;93.30;;;;;;5016497;28;20504;-73
2023/10/10 10:01:46;;;;;;;21.70;13.10;;;19.40;93.50;;;;;;5026790;28;20048;-74
2023/10/10 10:04:18;;;;;;;20.67;13.25;;;19.50;93.40;;;;;;5006860;28;20304;-74
2023/10/10 10:06:59;;;;;;;20.45;12.07;;;19.70;92.70;;;;;;5027367;28;20041;-74
2023/10/10 10:09:45;;;;;;;18.30;11.82;;;19.60;92.10;;;;;;5011451;28;20025;-78
2023/10/10 10:12:33;;;;;;;15.82;10.25;;;19.40;91.90;;;;;;5023189;28;20029;-75
2023/10/10 10:15:18;;;;;;;21.52;11.32;;;19.00;92.30;;;;;;5015949;28;20072;-75
2023/10/10 10:17:54;;;;;;;21.20;13.00;;;18.70;93.10;;;;;;5023556;28;20036;-74
2023/10/10 10:20:24;;;;;;;24.50;12.35;;;18.50;93.70;;;;;;5017233;28;20029;-74
2023/10/10 10:22:54;;;;;;;21.98;11.93;;;18.70;93.70;;;;;;5019445;28;20033;-74
2023/10/10 10:25:25;;;;;;;18.38;10.15;;;18.80;93.60;;;;;;5019370;28;20045;-74
2023/10/10 10:28:00;;;;;;;20.08;9.32;;;19.00;93.10;;;;;;5031534;28;20476;-73
2023/10/10 10:32:54;;;;;;;14.90;9.05;;;19.20;92.30;;;;;;5032281;28;20044;-73
2023/10/10 10:35:24;;;;;;;15.63;8.68;;;19.20;92.30;;;;;;5017583;28;20032;-75
2023/10/10 10:37:59;;;;;;;15.57;8.63;;;19.10;92.40;;;;;;5029419;28;20029;-74
2023/10/10 10:40:42;;;;;;;12.50;6.82;;;19.30;92.10;;;;;;5021315;28;20052;-73
2023/10/10 10:43:20;;;;;;;11.85;6.57;;;19.30;91.80;;;;;;5022998;28;20033;-71
2023/10/10 10:45:51;;;;;;;17.67;6.43;;;19.10;91.80;;;;;;5019967;28;20143;-74
2023/10/10 10:48:29;;;;;;;14.82;6.72;;;19.10;92.20;;;;;;5029360;28;20038;-76
2023/10/10 10:51:04;;;;;;;11.00;6.30;;;18.80;92.60;;;;;;5019015;28;20348;-76
2023/10/10 10:53:38;;;;;;;19.52;6.30;;;18.70;93.00;;;;;;5031513;28;20045;-76
2023/10/10 10:56:37;;;;;;;10.77;5.68;;;18.80;92.20;;;;;;5017830;28;20546;-75
2023/10/10 11:01:27;;;;;;;9.95;5.60;;;18.80;92.00;;;;;;5020939;28;20453;-77
2023/10/10 11:03:54;;;;;;;14.10;5.28;;;19.10;91.60;;;;;;5027576;28;20064;-75
2023/10/10 11:06:24;;;;;;;14.60;5.78;;;19.40;91.00;;;;;;5018848;28;20040;-73
2023/10/10 11:11:36;;;;;;;12.57;5.55;;;19.10;91.20;;;;;;5022142;28;19913;-75
2023/10/10 11:14:09;;;;;;;12.43;5.95;;;19.20;91.00;;;;;;5030762;28;20555;-75
2023/10/10 11:16:38;;;;;;;11.95;6.07;;;19.40;90.40;;;;;;5023147;28;20082;-74
2023/10/10 11:19:25;;;;;;;12.65;6.00;;;19.50;90.00;;;;;;5033633;28;20140;-75
2023/10/10 11:21:53;;;;;;;10.77;5.65;;;19.50;89.90;;;;;;5020147;28;20036;-75
2023/10/10 11:24:23;;;;;;;9.30;5.60;;;19.20;90.40;;;;;;5029948;28;20083;-76
2023/10/10 11:29:41;;;;;;;21.95;7.95;;;19.30;90.70;;;;;;5030202;28;20068;-75
2023/10/10 11:32:08;;;;;;;17.05;7.00;;;19.50;90.80;;;;;;5025304;28;20029;-75
2023/10/10 11:34:50;;;;;;;12.82;6.40;;;19.40;90.50;;;;;;5032218;28;20056;-76
2023/10/10 11:37:20;;;;;;;15.93;6.47;;;19.50;90.30;;;;;;5017867;28;20040;-76
2023/10/10 11:39:48;;;;;;;17.02;6.78;;;19.50;89.80;;;;;;5024071;28;20041;-77
2023/10/10 11:42:33;;;;;;;14.85;5.80;;;19.40;90.00;;;;;;5018449;28;20140;-76
2023/10/10 11:45:04;;;;;;;16.95;6.70;;;19.30;90.30;;;;;;5030086;28;20041;-82
2023/10/10 11:47:31;;;;;;;15.55;6.88;;;19.50;90.30;;;;;;5022595;28;20785;-75
2023/10/10 11:50:04;;;;;;;13.57;6.82;;;19.50;90.10;;;;;;5026248;28;21804;-75
2023/10/10 11:52:30;;;;;;;20.40;7.15;;;19.50;90.30;;;;;;5020695;28;20029;-75
2023/10/10 11:54:58;;;;;;;19.40;7.72;;;19.50;90.30;;;;;;5032220;28;20033;-75
2023/10/10 11:57:28;;;;;;;17.77;7.43;;;19.50;90.40;;;;;;5023900;28;20029;-76
2023/10/10 11:59:55;;;;;;;17.95;8.73;;;19.50;90.40;;;;;;5037480;28;20065;-75
2023/10/10 12:02:29;;;;;;;21.08;7.88;;;19.60;90.30;;;;;;5022101;28;20916;-75
2023/10/10 12:04:55;;;;;;;14.93;7.47;;;19.60;90.30;;;;;;5032694;28;20064;-77
2023/10/10 12:07:24;;;;;;;16.40;7.00;;;19.80;89.20;;;;;;5027500;28;20100;-75
2023/10/10 12:09:54;;;;;;;15.20;6.90;;;19.80;89.60;;;;;;5023328;28;20025;-76
2023/10/10 12:12:20;;;;;;;13.57;7.28;;;19.80;89.00;;;;;;5029960;28;20147;-73
2023/10/10 12:14:46;;;;;;;21.40;7.85;;;19.70;88.80;;;;;;5026346;28;20110;-73
2023/10/10 12:17:14;;;;;;;16.05;7.93;;;19.60;89.00;;;;;;5027759;28;20464;-74
2023/10/10 12:19:43;;;;;;;14.68;7.35;;;19.40;90.40;;;;;;5024543;28;20033;-73
2023/10/10 12:22:10;;;;;;;17.23;8.20;;;19.40;90.10;;;;;;5034871;28;20064;-74
2023/10/10 12:24:39;;;;;;;15.75;8.25;;;19.50;90.10;;;;;;5022923;28;20048;-76
2023/10/10 12:27:08;;;;;;;12.13;7.20;;;19.70;88.90;;;;;;5034014;28;20037;-74
2023/10/10 12:29:47;;;;;;;13.20;7.43;;;19.40;89.80;;;;;;5028174;28;20045;-75
2023/10/10 12:32:18;;;;;;;15.20;7.53;;;19.30;89.90;;;;;;5040379;28;20080;-76
2023/10/10 12:34:45;;;;;;;19.08;7.60;;;19.10;90.30;;;;;;5034527;28;20118;-75
2023/10/10 12:37:12;;;;;;;12.85;7.45;;;19.30;90.40;;;;;;5058404;28;20025;-75
2023/10/10 12:39:38;;;;;;;18.38;7.50;;;19.40;89.10;;;;;;5048619;28;20037;-73
2023/10/10 12:42:04;;;;;;;17.25;7.85;;;19.20;89.50;;;;;;5048904;28;21346;-74
2023/10/10 12:44:29;;;;;;;11.52;6.95;;;19.10;90.20;;;;;;5014580;28;20048;-73
2023/10/10 12:46:58;;;;;;;14.68;7.10;;;19.10;90.20;;;;;;5030700;28;20033;-73
2023/10/10 12:49:29;;;;;;;18.27;7.78;;;19.20;90.30;;;;;;5020271;28;20029;-72
2023/10/10 12:51:56;;;;;;;15.02;7.40;;;19.10;90.10;;;;;;5027178;28;20044;-73
2023/10/10 12:54:27;;;;;;;15.18;6.97;;;19.20;90.10;;;;;;5018728;28;20286;-75
2023/10/10 12:57:01;;;;;;;13.98;6.53;;;19.20;89.80;;;;;;5026491;28;20745;-76
2023/10/10 12:59:28;;;;;;;15.02;6.50;;;19.30;89.30;;;;;;5016367;28;20033;-78
2023/10/10 13:01:56;;;;;;;13.95;6.20;;;19.30;89.60;;;;;;5024326;28;20029;-76
2023/10/10 13:04:28;;;;;;;18.15;6.88;;;19.20;90.20;;;;;;5013107;28;20059;-77
2023/10/10 13:06:54;;;;;;;16.63;7.85;;;19.30;90.40;;;;;;5031311;28;20075;-74
2023/10/10 13:09:19;;;;;;;15.38;6.40;;;19.40;90.00;;;;;;5025938;28;20029;-74
2023/10/10 13:11:45;;;;;;;14.60;6.53;;;19.60;88.90;;;;;;5018308;28;20037;-76
2023/10/10 13:14:15;;;;;;;16.58;6.50;;;19.70;87.90;;;;;;5034394;28;20595;-76
2023/10/10 13:19:06;;;;;;;12.30;5.55;;;19.80;87.60;;;;;;5030420;28;19913;-76
2023/10/10 13:21:36;;;;;;;14.23;5.38;;;20.00;86.20;;;;;;5031386;28;20079;-76
2023/10/10 13:24:03;;;;;;;14.73;5.35;;;20.20;85.50;;;;;;5041871;28;20056;-76
2023/10/10 13:26:30;;;;;;;14.75;5.53;;;20.20;86.40;;;;;;5040964;28;20099;-77
2023/10/10 13:28:57;;;;;;;13.38;4.85;;;20.10;85.60;;;;;;5047712;28;20033;-76
2023/10/10 13:31:29;;;;;;;13.65;5.45;;;19.70;87.40;;;;;;5033904;28;20029;-76
2023/10/10 13:33:54;;;;;;;12.73;4.30;;;19.70;87.90;;;;;;5045511;28;20040;-74
2023/10/10 13:36:20;;;;;;;10.18;4.32;;;19.70;86.90;;;;;;5042377;28;20063;-74
2023/10/10 13:38:48;;;;;;;13.57;4.35;;;19.80;87.10;;;;;;5043022;28;20029;-75
2023/10/10 13:41:16;;;;;;;13.97;4.97;;;19.80;86.40;;;;;;5035621;28;20143;-76
2023/10/10 13:43:47;;;;;;;11.48;4.05;;;20.20;85.10;;;;;;5049767;28;20036;-77
2023/10/10 13:46:16;;;;;;;13.85;4.90;;;19.90;85.30;;;;;;5044448;28;20059;-77
2023/10/10 13:48:41;;;;;;;7.57;4.07;;;19.60;86.90;;;;;;5045191;28;20032;-76
2023/10/10 13:51:08;;;;;;;14.15;4.20;;;19.40;87.50;;;;;;5029615;28;20116;-76
2023/10/10 13:53:35;;;;;;;8.88;4.35;;;19.40;87.70;;;;;;5042097;28;20067;-76
2023/10/10 13:56:03;;;;;;;10.70;4.30;;;19.50;87.60;;;;;;5031877;28;20040;-74
2023/10/10 13:58:30;;;;;;;10.83;4.83;;;19.70;86.80;;;;;;5035801;28;20140;-75
2023/10/10 14:01:04;;;;;;;12.65;4.30;;;19.60;86.60;;;;;;5026299;28;20033;-74
2023/10/10 14:03:29;;;;;;;7.10;4.43;;;19.60;87.00;;;;;;5011862;28;20079;-76
2023/10/10 14:06:12;;;;;;;12.60;4.60;;;19.50;87.80;;;;;;5024464;28;20049;-74
2023/10/10 14:08:43;;;;;;;16.35;4.35;;;19.50;88.60;;;;;;5025658;28;20091;-74
2023/10/10 14:11:10;;;;;;;15.30;4.00;;;19.80;88.20;;;;;;5028192;28;20568;-76
2023/10/10 14:13:35;;;;;;;12.02;4.00;;;20.20;86.60;;;;;;5022519;28;20041;-74
2023/10/10 14:16:01;;;;;;;18.65;4.22;;;20.10;86.50;;;;;;5030556;28;20885;-75
2023/10/10 14:18:30;;;;;;;15.02;3.70;;;19.90;86.70;;;;;;5023364;28;20107;-74
2023/10/10 14:21:00;;;;;;;12.93;4.45;;;19.70;87.90;;;;;;5029344;28;20112;-74
2023/10/10 14:23:27;;;;;;;16.08;4.22;;;19.60;88.70;;;;;;5022531;28;20428;-74
2023/10/10 14:26:11;;;;;;;13.10;4.88;;;19.40;89.00;;;;;;5043693;28;20041;-74
2023/10/10 14:28:37;;;;;;;17.45;4.45;;;19.30;89.90;;;;;;5032949;28;20136;-79
2023/10/10 14:31:03;;;;;;;14.30;4.50;;;19.30;90.20;;;;;;5039176;28;20045;-76
2023/10/10 14:33:29;;;;;;;26.05;4.43;;;19.40;90.20;;;;;;5036101;28;20064;-76
2023/10/10 14:35:54;;;;;;;16.02;4.22;;;19.40;90.20;;;;;;5049081;28;20056;-74
2023/10/10 14:38:20;;;;;;;12.80;4.55;;;19.40;90.00;;;;;;5033713;28;20074;-76
2023/10/10 14:40:46;;;;;;;17.05;5.20;;;19.30;90.10;;;;;;5050249;28;20025;-74
2023/10/10 14:43:11;;;;;;;10.32;4.57;;;19.50;90.10;;;;;;5035213;28;20056;-74
2023/10/10 14:45:42;;;;;;;14.90;4.50;;;19.60;89.80;;;;;;5047997;28;20036;-75
2023/10/10 14:48:09;;;;;;;15.80;5.13;;;19.70;89.60;;;;;;5036931;28;20051;-74
2023/10/10 14:50:38;;;;;;;16.80;4.55;;;20.10;88.10;;;;;;5037282;28;20036;-72
2023/10/10 14:53:08;;;;;;;14.30;4.88;;;20.40;87.20;;;;;;5027917;28;20032;-74
2023/10/10 14:55:39;;;;;;;13.65;4.13;;;20.20;86.90;;;;;;5038288;28;20037;-74
2023/10/10 14:58:09;;;;;;;12.70;4.38;;;19.90;88.10;;;;;;5027631;28;20103;-74
2023/10/10 15:00:44;;;;;;;13.68;5.43;;;19.80;88.70;;;;;;5030167;28;20029;-74
2023/10/10 15:03:13;;;;;;;13.23;4.65;;;19.70;88.80;;;;;;5021074;28;20025;-75
2023/10/10 15:05:50;;;;;;;9.05;3.78;;;19.80;88.80;;;;;;5027519;28;20241;-74